Time;durP1;ratioP1;P1;durP2;ratioP2;P2;SDS_P1;SDS_P2;PMS_P1;PMS_P2;Temp;Humidity;BMP_temperature;BMP_pressure;BME280_temperature;BME280_humidity;BME280_pressure;Samples;Min_cycle;Max_cycle;Signal;HPM_P1;HPM_P2
2022/10/10 00:00:43;;;;;;;7.45;4.45;;;9.90;94.40;;;;;;5010999;28;20775;-62
2022/10/10 00:03:09;;;;;;;8.52;4.70;;;9.90;94.50;;;;;;5014076;28;20454;-62
2022/10/10 00:05:36;;;;;;;8.80;4.60;;;9.90;94.70;;;;;;5009709;28;20049;-62
2022/10/10 00:08:03;;;;;;;7.68;4.43;;;9.90;94.80;;;;;;5013822;28;20018;-62
2022/10/10 00:10:28;;;;;;;7.75;5.07;;;9.90;94.80;;;;;;5013723;28;20446;-62
2022/10/10 00:12:54;;;;;;;6.32;4.65;;;9.80;94.90;;;;;;5016964;28;20052;-62
2022/10/10 00:15:20;;;;;;;7.75;5.35;;;9.80;95.00;;;;;;5020388;28;20083;-62
2022/10/10 00:17:51;;;;;;;8.43;4.80;;;9.80;95.10;;;;;;5029460;28;20061;-62
2022/10/10 00:20:18;;;;;;;10.10;5.00;;;9.80;95.10;;;;;;5025257;28;20025;-62
2022/10/10 00:22:44;;;;;;;9.15;5.00;;;9.80;95.20;;;;;;5011589;28;20038;-62
2022/10/10 00:25:10;;;;;;;8.55;4.57;;;9.80;95.30;;;;;;5009537;28;20034;-62
2022/10/10 00:27:37;;;;;;;8.30;4.82;;;9.80;95.50;;;;;;5011322;28;20544;-62
2022/10/10 00:30:05;;;;;;;7.63;4.80;;;9.70;95.50;;;;;;5011546;28;20037;-62
2022/10/10 00:32:30;;;;;;;7.35;4.57;;;9.70;95.60;;;;;;5015900;28;20387;-62
2022/10/10 00:34:56;;;;;;;9.00;4.72;;;9.70;95.70;;;;;;5016741;28;20543;-62
2022/10/10 00:37:22;;;;;;;6.88;4.90;;;9.70;95.90;;;;;;5013517;28;20028;-62
2022/10/10 00:39:47;;;;;;;8.05;4.82;;;9.60;95.90;;;;;;5019330;28;20026;-62
2022/10/10 00:42:15;;;;;;;6.75;4.80;;;9.60;96.00;;;;;;5019102;28;20517;-62
2022/10/10 00:44:43;;;;;;;9.45;4.97;;;9.60;96.10;;;;;;5015412;28;20436;-62
2022/10/10 00:47:09;;;;;;;6.55;4.45;;;9.60;96.20;;;;;;5021059;28;20036;-62
2022/10/10 00:49:40;;;;;;;7.05;4.72;;;9.60;96.60;;;;;;5012624;28;20034;-62
2022/10/10 00:52:08;;;;;;;7.75;4.78;;;9.60;96.40;;;;;;5014327;28;20463;-62
2022/10/10 00:54:36;;;;;;;8.82;4.60;;;9.50;96.40;;;;;;5015669;28;20046;-62
2022/10/10 00:57:09;;;;;;;7.72;4.18;;;9.50;96.50;;;;;;5013731;28;20109;-62
2022/10/10 00:59:37;;;;;;;7.45;4.53;;;9.50;96.60;;;;;;5014541;28;20031;-62
2022/10/10 01:02:04;;;;;;;8.57;4.85;;;9.50;96.70;;;;;;5016869;28;20037;-62
2022/10/10 01:04:34;;;;;;;4.95;4.03;;;9.50;96.80;;;;;;5017006;28;20519;-62
2022/10/10 01:07:03;;;;;;;9.65;5.13;;;9.50;96.80;;;;;;5012804;28;20083;-62
2022/10/10 01:09:30;;;;;;;7.05;4.80;;;9.50;96.90;;;;;;5019173;28;20026;-62
2022/10/10 01:12:12;;;;;;;8.65;5.05;;;9.40;97.00;;;;;;5013896;28;20113;-62
2022/10/10 01:15:15;;;;;;;9.75;4.80;;;9.40;97.30;;;;;;5013929;28;20026;-62
2022/10/10 01:17:51;;;;;;;9.55;4.30;;;9.40;97.20;;;;;;5015916;28;20100;-62
2022/10/10 01:20:43;;;;;;;7.13;4.80;;;9.40;97.30;;;;;;5016496;28;20486;-62
2022/10/10 01:23:43;;;;;;;8.10;4.35;;;9.30;97.30;;;;;;5016439;28;20021;-62
2022/10/10 01:26:29;;;;;;;7.78;4.97;;;9.30;97.40;;;;;;5015593;28;20394;-62
2022/10/10 01:29:07;;;;;;;5.10;4.60;;;9.30;97.60;;;;;;5016518;28;20437;-62
2022/10/10 01:31:38;;;;;;;8.32;5.20;;;9.30;97.70;;;;;;5018602;28;20225;-62
2022/10/10 01:34:18;;;;;;;11.50;5.53;;;9.30;97.80;;;;;;5028881;28;20103;-62
2022/10/10 01:36:57;;;;;;;10.73;5.82;;;9.30;97.90;;;;;;5017400;28;20064;-62
2022/10/10 01:39:58;;;;;;;8.23;4.30;;;9.30;98.00;;;;;;5015502;28;20033;-62
2022/10/10 01:42:32;;;;;;;7.68;4.20;;;9.30;98.00;;;;;;5011327;28;20042;-62
2022/10/10 01:44:57;;;;;;;8.75;4.90;;;9.30;98.10;;;;;;5015772;28;20026;-62
2022/10/10 01:47:23;;;;;;;9.85;5.20;;;9.20;98.10;;;;;;5014938;28;20026;-62
2022/10/10 01:49:54;;;;;;;7.82;5.28;;;9.20;98.10;;;;;;5012701;28;20065;-62
2022/10/10 01:52:25;;;;;;;6.10;4.38;;;9.20;98.20;;;;;;5013889;28;20112;-62
2022/10/10 01:55:21;;;;;;;6.88;4.90;;;9.20;98.20;;;;;;5011675;28;20030;-62
2022/10/10 01:58:17;;;;;;;7.60;4.85;;;9.20;98.20;;;;;;5012586;28;20036;-62
2022/10/10 02:00:57;;;;;;;7.57;4.60;;;9.20;98.30;;;;;;5015948;28;20526;-62
2022/10/10 02:03:28;;;;;;;9.48;5.53;;;9.20;98.50;;;;;;5013940;28;20032;-62
2022/10/10 02:06:04;;;;;;;9.07;6.35;;;9.10;98.60;;;;;;5014818;28;20026;-62
2022/10/10 02:08:42;;;;;;;10.75;5.38;;;9.10;98.60;;;;;;5015755;28;20041;-62
2022/10/10 02:11:09;;;;;;;8.65;5.40;;;9.10;98.70;;;;;;5025457;28;20382;-62
2022/10/10 02:13:57;;;;;;;8.07;4.88;;;9.10;98.80;;;;;;5011363;28;20034;-62
2022/10/10 02:16:30;;;;;;;8.40;5.07;;;9.10;98.80;;;;;;5025670;28;20041;-62
2022/10/10 02:18:58;;;;;;;6.85;5.20;;;9.00;98.80;;;;;;5014954;28;20025;-62
2022/10/10 02:21:25;;;;;;;6.13;5.20;;;9.00;98.90;;;;;;5014428;28;20185;-62
2022/10/10 02:23:54;;;;;;;9.73;4.85;;;9.00;99.00;;;;;;5016422;28;20033;-62
2022/10/10 02:26:22;;;;;;;9.27;6.07;;;9.00;99.00;;;;;;5011393;28;20101;-62
2022/10/10 02:28:51;;;;;;;10.85;5.85;;;8.90;99.00;;;;;;5014441;28;20024;-62
2022/10/10 02:31:39;;;;;;;7.43;4.82;;;8.90;99.30;;;;;;5013807;28;20034;-62
2022/10/10 02:34:19;;;;;;;11.15;5.80;;;8.90;99.10;;;;;;5013295;28;20038;-62
2022/10/10 02:36:48;;;;;;;8.40;5.93;;;8.90;99.30;;;;;;5012358;28;20058;-62
2022/10/10 02:39:17;;;;;;;8.80;5.70;;;8.90;99.40;;;;;;5022846;28;20091;-62
2022/10/10 02:41:45;;;;;;;8.05;5.25;;;8.80;99.50;;;;;;5030799;28;20054;-62
2022/10/10 02:44:13;;;;;;;8.50;5.35;;;8.80;99.60;;;;;;5012600;28;20033;-62
2022/10/10 02:46:38;;;;;;;7.78;5.03;;;8.80;99.60;;;;;;5015432;28;20029;-62
2022/10/10 02:49:07;;;;;;;10.25;5.30;;;8.80;99.70;;;;;;5015653;28;20441;-62
2022/10/10 02:51:33;;;;;;;8.48;5.85;;;8.80;99.80;;;;;;5015149;28;20034;-62
2022/10/10 02:53:58;;;;;;;9.75;5.57;;;8.70;99.80;;;;;;5013754;28;20041;-62
2022/10/10 02:56:24;;;;;;;6.32;5.25;;;8.70;99.90;;;;;;5013392;28;20478;-62
2022/10/10 02:58:49;;;;;;;8.88;5.90;;;8.70;99.90;;;;;;5011191;28;20137;-62
2022/10/10 03:01:15;;;;;;;10.43;6.00;;;8.70;99.90;;;;;;5013954;28;20084;-62
2022/10/10 03:03:40;;;;;;;9.85;5.03;;;8.60;99.90;;;;;;5013856;28;20104;-61
2022/10/10 03:06:06;;;;;;;7.72;5.68;;;8.60;99.90;;;;;;5027320;28;20056;-62
2022/10/10 03:08:32;;;;;;;6.55;5.25;;;8.60;99.90;;;;;;5025373;28;20120;-62
2022/10/10 03:11:01;;;;;;;9.32;5.97;;;8.60;99.90;;;;;;5010017;28;20040;-62
2022/10/10 03:13:26;;;;;;;11.73;6.25;;;8.60;99.90;;;;;;5024699;28;20052;-62
2022/10/10 03:15:52;;;;;;;7.10;5.45;;;8.60;99.90;;;;;;5012325;28;20076;-62
2022/10/10 03:18:18;;;;;;;9.00;6.32;;;8.50;99.90;;;;;;5010323;28;20033;-62
2022/10/10 03:20:45;;;;;;;10.02;5.88;;;8.50;99.90;;;;;;5016510;28;20018;-62
2022/10/10 03:23:11;;;;;;;10.60;6.15;;;8.50;99.90;;;;;;5012464;28;20014;-62
2022/10/10 03:25:41;;;;;;;9.45;5.60;;;8.50;99.90;;;;;;5010057;28;20458;-62
2022/10/10 03:28:07;;;;;;;10.20;5.70;;;8.50;99.90;;;;;;5013484;28;20512;-62
2022/10/10 03:30:33;;;;;;;8.98;5.95;;;8.50;99.90;;;;;;5016028;28;20029;-62
2022/10/10 03:32:59;;;;;;;9.98;6.15;;;8.40;99.90;;;;;;5015052;28;20109;-62
2022/10/10 03:35:24;;;;;;;8.13;5.28;;;8.40;99.90;;;;;;5010453;28;20473;-62
2022/10/10 03:37:50;;;;;;;8.05;6.40;;;8.40;99.90;;;;;;5013140;28;20513;-62
2022/10/10 03:40:15;;;;;;;8.43;5.85;;;8.40;99.90;;;;;;5015858;28;20377;-62
2022/10/10 03:42:41;;;;;;;12.10;6.63;;;8.40;99.90;;;;;;5016556;28;20046;-62
2022/10/10 03:45:06;;;;;;;10.63;6.32;;;8.40;99.90;;;;;;5013983;28;20053;-61
2022/10/10 03:47:32;;;;;;;10.80;6.18;;;8.40;99.90;;;;;;5010442;28;20492;-61
2022/10/10 03:49:57;;;;;;;7.68;5.50;;;8.40;99.90;;;;;;5012751;28;20031;-61
2022/10/10 03:52:23;;;;;;;9.18;5.50;;;8.40;99.90;;;;;;5016643;28;20096;-62
2022/10/10 03:54:48;;;;;;;9.90;6.28;;;8.40;99.90;;;;;;5012051;28;20108;-62
2022/10/10 03:57:14;;;;;;;10.52;6.15;;;8.30;99.90;;;;;;5009770;28;20114;-62
2022/10/10 03:59:39;;;;;;;9.63;6.68;;;8.30;99.90;;;;;;5015945;28;20029;-62
2022/10/10 04:02:05;;;;;;;11.25;6.18;;;8.20;99.90;;;;;;5011375;28;20034;-62
2022/10/10 04:04:30;;;;;;;14.43;6.70;;;8.20;99.90;;;;;;5011933;28;20478;-62
2022/10/10 04:06:56;;;;;;;9.13;7.38;;;8.20;99.90;;;;;;5011409;28;20492;-62
2022/10/10 04:09:22;;;;;;;7.93;6.32;;;8.20;99.90;;;;;;5015208;28;20088;-62
2022/10/10 04:11:47;;;;;;;10.25;7.60;;;8.20;99.90;;;;;;5011175;28;20046;-62
2022/10/10 04:14:13;;;;;;;10.57;6.90;;;8.10;99.90;;;;;;5024921;28;20388;-62
2022/10/10 04:16:38;;;;;;;13.88;7.90;;;8.20;99.90;;;;;;5014668;28;20040;-61
2022/10/10 04:19:04;;;;;;;12.43;6.80;;;8.10;99.90;;;;;;5015689;28;20025;-62
2022/10/10 04:21:29;;;;;;;9.23;6.22;;;8.10;99.90;;;;;;5011920;28;20029;-62
2022/10/10 04:23:55;;;;;;;10.00;6.13;;;8.10;99.90;;;;;;5012481;28;20029;-61
2022/10/10 04:26:20;;;;;;;10.02;6.30;;;8.00;99.90;;;;;;5010966;28;20478;-62
2022/10/10 04:28:46;;;;;;;8.32;5.88;;;8.00;99.90;;;;;;5018360;28;20040;-62
2022/10/10 04:31:11;;;;;;;12.75;6.47;;;8.00;99.90;;;;;;5011484;28;20025;-62
2022/10/10 04:33:37;;;;;;;10.10;6.50;;;7.90;99.90;;;;;;5009911;28;20470;-62
2022/10/10 04:36:02;;;;;;;10.02;6.63;;;7.90;99.90;;;;;;5011269;28;20069;-62
2022/10/10 04:38:28;;;;;;;9.88;6.50;;;7.90;99.90;;;;;;5012107;28;20485;-62
2022/10/10 04:40:53;;;;;;;12.48;7.15;;;7.90;99.90;;;;;;5011170;28;20443;-61
2022/10/10 04:43:19;;;;;;;12.02;7.47;;;7.90;99.90;;;;;;5009416;28;20030;-62
2022/10/10 04:45:45;;;;;;;11.00;7.00;;;7.90;99.90;;;;;;5012592;28;20026;-62
2022/10/10 04:48:10;;;;;;;12.18;7.50;;;7.90;99.90;;;;;;5014042;28;20057;-62
2022/10/10 04:50:36;;;;;;;10.50;7.82;;;7.90;99.90;;;;;;5015442;28;20434;-62
2022/10/10 04:53:02;;;;;;;12.13;7.20;;;7.90;99.90;;;;;;5012905;28;20038;-62
2022/10/10 04:55:28;;;;;;;11.50;7.18;;;7.90;99.90;;;;;;5011811;28;20478;-62
2022/10/10 04:57:53;;;;;;;9.40;7.10;;;7.90;99.90;;;;;;5012438;28;20040;-62
2022/10/10 05:00:19;;;;;;;10.52;7.75;;;7.90;99.90;;;;;;5012500;28;20026;-62
2022/10/10 05:02:44;;;;;;;10.70;6.80;;;7.90;99.90;;;;;;5011824;28;20021;-61
2022/10/10 05:05:10;;;;;;;11.05;7.30;;;7.80;99.90;;;;;;5012035;28;20034;-61
2022/10/10 05:07:35;;;;;;;9.50;7.32;;;7.80;99.90;;;;;;5013503;28;20441;-62
2022/10/10 05:10:01;;;;;;;10.82;7.07;;;7.90;99.90;;;;;;5030114;28;20037;-62
2022/10/10 05:12:27;;;;;;;11.63;7.47;;;7.80;99.90;;;;;;5031598;28;20017;-62
2022/10/10 05:14:53;;;;;;;10.23;7.63;;;7.80;99.90;;;;;;5031835;28;20531;-61
2022/10/10 05:17:18;;;;;;;12.80;7.38;;;7.80;99.90;;;;;;5031509;28;20021;-62
2022/10/10 05:19:44;;;;;;;8.55;6.93;;;7.80;99.90;;;;;;5033241;28;20010;-61
2022/10/10 05:22:09;;;;;;;10.00;6.97;;;7.80;99.90;;;;;;5034136;28;20029;-61
2022/10/10 05:24:35;;;;;;;12.95;8.13;;;7.80;99.90;;;;;;5029931;28;20034;-61
2022/10/10 05:27:02;;;;;;;10.50;7.10;;;7.80;99.90;;;;;;5034854;28;20474;-61
2022/10/10 05:29:28;;;;;;;11.85;7.28;;;7.80;99.90;;;;;;5034816;28;20029;-62
2022/10/10 05:31:53;;;;;;;12.57;7.68;;;7.80;99.90;;;;;;5034895;28;20367;-61
2022/10/10 05:34:19;;;;;;;9.48;7.47;;;7.80;99.90;;;;;;5034827;28;20065;-62
2022/10/10 05:36:45;;;;;;;11.43;7.82;;;7.80;99.90;;;;;;5033061;28;20469;-61
2022/10/10 05:39:10;;;;;;;11.50;7.43;;;7.80;99.90;;;;;;5033802;28;20482;-61
2022/10/10 05:41:36;;;;;;;11.48;7.18;;;7.80;99.90;;;;;;5034002;28;20045;-62
2022/10/10 05:44:01;;;;;;;12.25;7.03;;;7.80;99.90;;;;;;5024011;28;20033;-62
2022/10/10 05:46:27;;;;;;;10.35;7.20;;;7.80;99.90;;;;;;5030037;28;20109;-62
2022/10/10 05:48:53;;;;;;;10.02;7.45;;;7.80;99.90;;;;;;5033287;28;20520;-62
2022/10/10 05:51:19;;;;;;;10.05;6.72;;;7.80;99.90;;;;;;5034529;28;20030;-62
2022/10/10 05:53:45;;;;;;;13.18;7.78;;;7.80;99.90;;;;;;5025989;28;20061;-62
2022/10/10 05:56:11;;;;;;;8.50;6.78;;;7.80;99.90;;;;;;5034505;28;20432;-61
2022/10/10 05:58:37;;;;;;;10.85;7.63;;;7.80;99.90;;;;;;5019313;28;20036;-62
2022/10/10 06:01:05;;;;;;;13.38;8.00;;;7.80;99.90;;;;;;5032129;28;20023;-62
2022/10/10 06:03:31;;;;;;;11.95;7.85;;;7.80;99.90;;;;;;5033142;28;20063;-62
2022/10/10 06:05:57;;;;;;;11.68;7.57;;;7.80;99.90;;;;;;5026193;28;20104;-62
2022/10/10 06:08:24;;;;;;;9.50;7.38;;;7.80;99.90;;;;;;5026938;28;20057;-62
2022/10/10 06:10:50;;;;;;;10.05;7.40;;;7.80;99.90;;;;;;5029408;28;20025;-62
2022/10/10 06:13:18;;;;;;;8.10;6.75;;;7.80;99.90;;;;;;5032583;28;20504;-61
2022/10/10 06:15:44;;;;;;;9.43;7.68;;;7.80;99.90;;;;;;5031918;28;20026;-62
2022/10/10 06:18:10;;;;;;;11.27;7.50;;;7.80;99.90;;;;;;5025464;28;20072;-62
2022/10/10 06:20:37;;;;;;;11.35;7.15;;;7.80;99.90;;;;;;5024797;28;20034;-61
2022/10/10 06:23:04;;;;;;;10.30;6.97;;;7.80;99.90;;;;;;5029718;28;20591;-62
2022/10/10 06:25:32;;;;;;;10.10;8.07;;;7.90;99.90;;;;;;5031462;28;20052;-61
2022/10/10 06:27:57;;;;;;;10.95;7.88;;;7.90;99.90;;;;;;5031375;28;20543;-61
2022/10/10 06:30:23;;;;;;;12.80;8.43;;;7.90;99.90;;;;;;5030703;28;20049;-61
2022/10/10 06:32:48;;;;;;;11.82;7.13;;;8.00;99.90;;;;;;5033050;28;20096;-62
2022/10/10 06:35:14;;;;;;;14.02;8.82;;;8.00;99.90;;;;;;5026046;28;20112;-62
2022/10/10 06:37:39;;;;;;;13.73;7.97;;;8.10;99.90;;;;;;5014031;28;20053;-61
2022/10/10 06:40:05;;;;;;;10.27;7.53;;;8.20;99.90;;;;;;5020983;28;20036;-61
2022/10/10 06:42:31;;;;;;;11.07;8.57;;;8.30;99.90;;;;;;5030954;28;20056;-61
2022/10/10 06:44:57;;;;;;;13.73;7.35;;;8.40;99.90;;;;;;5028104;28;20063;-61
2022/10/10 06:47:22;;;;;;;14.13;7.82;;;8.50;99.90;;;;;;5029358;28;20033;-61
2022/10/10 06:49:48;;;;;;;16.00;8.60;;;8.60;99.90;;;;;;5020325;28;20033;-61
2022/10/10 06:52:13;;;;;;;15.07;7.97;;;8.70;99.90;;;;;;5023408;28;20034;-61
2022/10/10 06:54:39;;;;;;;11.63;7.30;;;8.80;99.90;;;;;;5014002;28;20064;-61
2022/10/10 06:57:04;;;;;;;11.48;8.23;;;8.90;99.90;;;;;;5017776;28;20029;-61
2022/10/10 06:59:30;;;;;;;15.38;8.88;;;8.90;99.90;;;;;;5031802;28;20063;-61
2022/10/10 07:01:59;;;;;;;13.85;7.82;;;8.90;99.90;;;;;;5031831;28;20040;-61
2022/10/10 07:04:24;;;;;;;12.13;7.05;;;9.00;99.90;;;;;;5032271;28;20120;-61
2022/10/10 07:06:50;;;;;;;11.10;7.03;;;9.00;99.90;;;;;;5031721;28;20045;-61
2022/10/10 07:09:17;;;;;;;10.23;7.53;;;9.10;99.90;;;;;;5031834;28;20030;-62
2022/10/10 07:11:44;;;;;;;12.10;7.57;;;9.20;99.90;;;;;;5032229;28;20100;-61
2022/10/10 07:14:10;;;;;;;10.43;7.03;;;9.30;99.90;;;;;;5031810;28;20030;-61
2022/10/10 07:16:35;;;;;;;11.63;6.82;;;9.30;99.90;;;;;;5030245;28;20025;-61
2022/10/10 07:19:01;;;;;;;10.65;7.30;;;9.40;99.90;;;;;;5031640;28;20075;-61
2022/10/10 07:21:27;;;;;;;12.25;8.13;;;9.50;99.90;;;;;;5032657;28;20076;-61
2022/10/10 07:23:52;;;;;;;11.27;7.05;;;9.60;99.90;;;;;;5036047;28;20029;-62
2022/10/10 07:26:21;;;;;;;10.23;7.25;;;9.70;99.90;;;;;;5051643;28;20029;-62
2022/10/10 07:28:47;;;;;;;10.30;7.07;;;9.70;99.90;;;;;;5050443;28;20469;-62
2022/10/10 07:31:12;;;;;;;12.25;7.55;;;9.90;99.90;;;;;;5031012;28;20405;-62
2022/10/10 07:33:41;;;;;;;11.77;7.00;;;10.00;99.90;;;;;;5030047;28;20112;-62
2022/10/10 07:36:07;;;;;;;10.73;6.70;;;10.00;99.90;;;;;;5022313;28;20064;-62
2022/10/10 07:38:33;;;;;;;11.57;7.35;;;10.10;99.90;;;;;;5032333;28;20030;-62
2022/10/10 07:40:59;;;;;;;11.80;7.50;;;10.20;99.90;;;;;;5030798;28;20552;-62
2022/10/10 07:43:25;;;;;;;11.90;6.88;;;10.20;99.90;;;;;;5030160;28;20033;-62
2022/10/10 07:45:50;;;;;;;11.57;7.47;;;10.40;99.90;;;;;;5031361;28;20025;-62
2022/10/10 07:48:16;;;;;;;11.10;6.63;;;10.40;99.90;;;;;;5031524;28;20416;-62
2022/10/10 07:50:43;;;;;;;11.70;7.13;;;10.60;99.90;;;;;;5031513;28;20421;-63
2022/10/10 07:53:10;;;;;;;9.52;6.40;;;10.70;99.90;;;;;;5025431;28;20021;-62
2022/10/10 07:55:42;;;;;;;10.63;7.43;;;10.80;99.90;;;;;;5026279;28;20064;-62
2022/10/10 07:58:11;;;;;;;9.70;6.80;;;11.00;99.90;;;;;;5026261;28;20018;-62
2022/10/10 08:00:40;;;;;;;10.10;6.85;;;11.10;99.90;;;;;;5026631;28;20045;-62
2022/10/10 08:03:07;;;;;;;12.60;7.57;;;11.20;99.90;;;;;;5032354;28;20032;-62
2022/10/10 08:05:33;;;;;;;10.32;6.20;;;11.30;99.90;;;;;;5013460;28;20030;-62
2022/10/10 08:07:58;;;;;;;9.48;5.97;;;11.50;99.90;;;;;;5031520;28;20071;-62
2022/10/10 08:10:24;;;;;;;9.70;6.30;;;11.60;99.90;;;;;;5021070;28;20044;-62
2022/10/10 08:12:49;;;;;;;10.18;6.68;;;11.70;99.90;;;;;;5025350;28;20033;-62
2022/10/10 08:15:15;;;;;;;12.73;5.60;;;11.80;99.90;;;;;;5025107;28;20083;-62
2022/10/10 08:17:41;;;;;;;9.55;6.47;;;11.80;99.90;;;;;;5019097;28;20037;-62
2022/10/10 08:20:07;;;;;;;8.45;6.18;;;11.90;99.90;;;;;;5018965;28;20097;-62
2022/10/10 08:22:33;;;;;;;8.55;5.55;;;12.00;99.90;;;;;;5031527;28;20010;-62
2022/10/10 08:24:58;;;;;;;10.52;5.45;;;12.00;99.90;;;;;;5025897;28;20029;-62
2022/10/10 08:27:24;;;;;;;12.85;5.85;;;12.10;99.90;;;;;;5022214;28;20033;-62
2022/10/10 08:29:49;;;;;;;8.77;5.75;;;12.20;99.90;;;;;;5020287;28;20109;-62
2022/10/10 08:32:15;;;;;;;8.52;6.25;;;12.20;99.90;;;;;;5022687;28;20060;-62
2022/10/10 08:34:40;;;;;;;7.68;5.60;;;12.30;99.90;;;;;;5020131;28;20018;-62
2022/10/10 08:37:06;;;;;;;10.80;6.22;;;12.40;99.90;;;;;;5022799;28;20025;-62
2022/10/10 08:39:32;;;;;;;8.63;6.07;;;12.50;99.90;;;;;;5030350;28;20028;-62
2022/10/10 08:41:59;;;;;;;12.65;6.32;;;12.50;99.90;;;;;;5024417;28;20038;-62
2022/10/10 08:44:43;;;;;;;11.05;5.88;;;12.50;99.90;;;;;;5024944;28;20029;-62
2022/10/10 08:47:14;;;;;;;7.40;5.20;;;12.60;99.90;;;;;;5042341;28;20029;-62
2022/10/10 08:49:41;;;;;;;10.50;6.60;;;12.60;99.90;;;;;;5031208;28;20466;-62
2022/10/10 08:52:11;;;;;;;9.70;6.30;;;12.70;99.90;;;;;;5031979;28;20037;-62
2022/10/10 08:54:38;;;;;;;9.73;6.03;;;12.80;99.90;;;;;;5034003;28;20045;-62
2022/10/10 08:57:06;;;;;;;8.85;5.72;;;12.80;99.90;;;;;;5034398;28;20095;-62
2022/10/10 08:59:38;;;;;;;8.50;6.28;;;12.90;99.90;;;;;;5029246;28;20527;-62
2022/10/10 09:02:39;;;;;;;10.93;5.95;;;13.00;99.90;;;;;;5031972;28;20025;-62
2022/10/10 09:05:12;;;;;;;8.57;6.43;;;13.20;99.90;;;;;;5024751;28;20025;-62
2022/10/10 09:08:11;;;;;;;11.13;6.72;;;13.30;99.90;;;;;;5029463;28;20098;-62
2022/10/10 09:11:07;;;;;;;11.00;5.95;;;13.50;99.90;;;;;;5028340;28;20026;-62
2022/10/10 09:13:41;;;;;;;8.32;5.07;;;13.60;99.90;;;;;;5028500;28;20041;-62
2022/10/10 09:16:17;;;;;;;8.73;6.07;;;13.80;99.80;;;;;;5026112;28;20033;-62
2022/10/10 09:18:48;;;;;;;7.43;5.07;;;13.90;99.40;;;;;;5028008;28;20044;-62
2022/10/10 09:21:35;;;;;;;11.20;5.60;;;14.00;99.30;;;;;;5035269;28;20029;-62
2022/10/10 09:24:44;;;;;;;9.02;5.18;;;14.20;98.90;;;;;;5029965;28;20025;-62
2022/10/10 09:27:21;;;;;;;6.70;4.30;;;14.30;98.60;;;;;;5030227;28;20049;-62
2022/10/10 09:29:59;;;;;;;7.70;5.43;;;14.40;98.50;;;;;;5032297;28;20474;-62
2022/10/10 09:32:44;;;;;;;6.93;4.30;;;14.60;98.20;;;;;;5032565;28;20485;-62
2022/10/10 09:35:16;;;;;;;5.60;3.60;;;14.80;98.10;;;;;;5017915;28;20040;-62
2022/10/10 09:37:43;;;;;;;7.80;3.60;;;15.00;97.80;;;;;;5025428;28;20025;-62
2022/10/10 09:40:33;;;;;;;5.32;3.33;;;15.20;97.60;;;;;;5019265;28;20025;-62
2022/10/10 09:43:00;;;;;;;;;;;15.40;97.10;;;;;;5033777;28;20046;-62
2022/10/10 09:45:35;;;;;;;6.60;3.65;;;15.60;97.10;;;;;;5025678;28;19939;-62
2022/10/10 09:48:00;;;;;;;6.72;4.28;;;15.80;96.50;;;;;;5027964;28;20422;-62
2022/10/10 09:50:26;;;;;;;8.65;3.90;;;16.00;96.20;;;;;;5031543;28;20033;-62
2022/10/10 09:52:52;;;;;;;6.70;3.92;;;16.20;95.50;;;;;;5028460;28;20026;-63
2022/10/10 09:55:33;;;;;;;7.15;3.30;;;16.30;95.10;;;;;;5034510;28;20568;-62
2022/10/10 09:58:31;;;;;;;6.22;3.13;;;16.50;94.70;;;;;;5035252;28;20059;-62
2022/10/10 10:01:17;;;;;;;5.53;3.35;;;16.70;94.30;;;;;;5053772;28;20025;-63
2022/10/10 10:03:43;;;;;;;6.22;3.70;;;16.80;93.80;;;;;;5037990;28;20075;-63
2022/10/10 10:06:12;;;;;;;4.90;3.53;;;16.90;93.10;;;;;;5032169;28;20033;-65
2022/10/10 10:08:38;;;;;;;6.13;3.75;;;17.00;92.80;;;;;;5029542;28;20014;-62
2022/10/10 10:11:04;;;;;;;7.30;3.88;;;17.00;92.60;;;;;;5031944;28;20046;-63
2022/10/10 10:13:35;;;;;;;8.85;3.28;;;17.00;92.30;;;;;;5032391;28;20068;-63
2022/10/10 10:16:13;;;;;;;8.15;3.33;;;17.10;92.30;;;;;;5029831;28;20018;-63
2022/10/10 10:18:43;;;;;;;4.32;2.50;;;17.30;92.00;;;;;;5032382;28;20018;-62
2022/10/10 10:21:11;;;;;;;8.30;2.80;;;17.30;92.00;;;;;;5029788;28;20035;-63
2022/10/10 10:24:02;;;;;;;6.57;2.95;;;17.30;91.90;;;;;;5032083;28;20022;-63
2022/10/10 10:26:44;;;;;;;3.70;3.10;;;17.30;91.90;;;;;;5029200;28;20037;-63
2022/10/10 10:29:27;;;;;;;7.65;3.35;;;17.30;91.60;;;;;;5031828;28;20017;-63
2022/10/10 10:32:01;;;;;;;4.70;3.00;;;17.20;91.20;;;;;;5032078;28;20021;-63
2022/10/10 10:34:50;;;;;;;5.05;3.08;;;17.30;91.50;;;;;;5032427;28;20022;-63
2022/10/10 10:37:18;;;;;;;6.80;3.05;;;17.40;91.30;;;;;;5023804;28;20108;-63
2022/10/10 10:40:23;;;;;;;6.25;3.33;;;17.40;91.30;;;;;;5024452;28;20055;-63
2022/10/10 10:43:07;;;;;;;6.93;3.20;;;17.60;91.20;;;;;;5030013;28;20045;-63
2022/10/10 10:45:39;;;;;;;6.93;2.95;;;17.90;91.00;;;;;;5029134;28;20565;-63
2022/10/10 10:48:28;;;;;;;7.45;3.05;;;18.50;90.30;;;;;;5034252;28;20379;-63
2022/10/10 10:50:56;;;;;;;6.22;2.70;;;19.10;89.20;;;;;;5027553;28;20029;-63
2022/10/10 10:53:27;;;;;;;5.70;2.47;;;19.60;88.00;;;;;;5034222;28;20029;-63
2022/10/10 10:56:19;;;;;;;4.03;2.17;;;20.80;85.90;;;;;;5033860;28;20025;-63
2022/10/10 10:58:57;;;;;;;5.20;1.90;;;21.60;81.20;;;;;;5048652;28;20044;-63
2022/10/10 11:01:59;;;;;;;3.95;1.83;;;22.20;79.00;;;;;;5028430;28;20018;-63
2022/10/10 11:04:52;;;;;;;4.50;2.00;;;24.00;75.60;;;;;;5044614;28;20033;-63
2022/10/10 11:07:23;;;;;;;4.90;1.98;;;26.60;69.00;;;;;;5028647;28;20486;-63
2022/10/10 11:10:31;;;;;;;5.75;2.20;;;26.90;62.90;;;;;;5027994;28;20059;-63
2022/10/10 11:12:59;;;;;;;5.03;2.43;;;26.90;61.60;;;;;;5025893;28;20033;-64
2022/10/10 11:15:43;;;;;;;3.55;1.23;;;27.60;59.60;;;;;;5029504;28;20025;-64
2022/10/10 11:18:36;;;;;;;4.50;2.10;;;28.10;58.00;;;;;;5027486;28;20017;-63
2022/10/10 11:21:15;;;;;;;3.88;2.13;;;27.50;56.40;;;;;;5026976;28;20037;-63
2022/10/10 11:23:51;;;;;;;4.22;1.98;;;26.80;56.90;;;;;;5024458;28;20013;-63
2022/10/10 11:26:24;;;;;;;4.07;1.80;;;26.30;57.70;;;;;;5025728;28;20400;-63
2022/10/10 11:28:56;;;;;;;3.90;2.00;;;26.40;58.20;;;;;;5028328;28;20029;-63
2022/10/10 11:31:50;;;;;;;8.38;2.45;;;26.90;56.80;;;;;;5024592;28;20167;-63
2022/10/10 11:35:09;;;;;;;4.10;2.22;;;26.30;55.90;;;;;;5033024;28;20112;-63
2022/10/10 11:37:40;;;;;;;5.32;2.13;;;25.70;56.90;;;;;;4991793;28;20033;-63
2022/10/10 11:40:22;;;;;;;3.13;1.77;;;25.60;57.90;;;;;;5028103;28;20034;-63
2022/10/10 11:42:53;;;;;;;4.15;2.13;;;26.30;57.60;;;;;;5031111;28;20077;-63
2022/10/10 11:45:24;;;;;;;5.40;2.08;;;27.80;55.30;;;;;;5032608;28;20079;-63
2022/10/10 11:48:09;;;;;;;4.32;2.20;;;28.40;53.30;;;;;;5027896;28;20501;-63
2022/10/10 11:50:39;;;;;;;3.97;1.73;;;27.90;53.10;;;;;;5030184;28;20030;-63
2022/10/10 11:53:31;;;;;;;3.47;1.73;;;27.30;54.00;;;;;;5032222;28;20374;-63
2022/10/10 11:56:28;;;;;;;3.60;1.88;;;27.10;55.20;;;;;;5030211;28;20014;-63
2022/10/10 11:59:00;;;;;;;3.83;1.63;;;28.40;54.40;;;;;;5027303;28;20013;-63
2022/10/10 12:01:36;;;;;;;3.58;1.80;;;29.40;53.20;;;;;;5033532;28;20047;-63
2022/10/10 12:04:02;;;;;;;3.90;1.70;;;30.10;51.10;;;;;;5030781;28;20017;-63
2022/10/10 12:06:46;;;;;;;3.70;1.73;;;30.40;50.50;;;;;;5031700;28;20032;-64
2022/10/10 12:09:18;;;;;;;6.05;1.95;;;30.10;50.10;;;;;;5032145;28;20021;-63
2022/10/10 12:11:58;;;;;;;6.18;1.80;;;30.20;50.50;;;;;;5033064;28;20029;-63
2022/10/10 12:14:27;;;;;;;2.55;1.33;;;30.80;49.50;;;;;;5029930;28;20075;-64
2022/10/10 12:16:54;;;;;;;4.07;1.65;;;31.30;49.40;;;;;;5017141;28;20368;-63
2022/10/10 12:19:22;;;;;;;5.97;1.90;;;32.40;48.20;;;;;;5027325;28;20017;-64
2022/10/10 12:21:58;;;;;;;3.83;1.52;;;32.20;47.00;;;;;;5017801;28;20025;-63
2022/10/10 12:24:30;;;;;;;3.63;1.60;;;31.40;47.30;;;;;;5023997;28;20025;-63
2022/10/10 12:26:56;;;;;;;4.07;2.20;;;30.10;48.60;;;;;;5013099;28;20080;-63
2022/10/10 12:29:48;;;;;;;5.72;2.20;;;29.30;50.20;;;;;;5029660;28;20433;-63
2022/10/10 12:32:13;;;;;;;6.93;2.28;;;28.50;51.20;;;;;;5018486;28;20025;-63
2022/10/10 12:34:56;;;;;;;4.30;1.95;;;27.80;52.50;;;;;;5014313;28;20348;-63
2022/10/10 12:37:26;;;;;;;4.63;2.38;;;27.30;53.20;;;;;;5045371;28;20111;-63
2022/10/10 12:40:06;;;;;;;5.00;2.67;;;26.90;54.20;;;;;;5025641;28;20500;-63
2022/10/10 12:42:45;;;;;;;6.70;2.45;;;26.40;54.90;;;;;;5031470;28;20442;-63
2022/10/10 12:45:29;;;;;;;4.93;2.22;;;25.80;56.00;;;;;;5032919;28;20029;-63
2022/10/10 12:48:04;;;;;;;6.28;3.03;;;25.40;56.90;;;;;;5036989;28;20031;-64
2022/10/10 12:50:52;;;;;;;5.55;2.60;;;25.10;57.70;;;;;;5031029;28;20029;-63
2022/10/10 12:53:20;;;;;;;4.53;2.53;;;24.80;58.10;;;;;;5039462;28;20031;-63
2022/10/10 12:55:49;;;;;;;6.75;2.90;;;24.50;58.80;;;;;;5049657;28;20017;-63
2022/10/10 12:58:23;;;;;;;6.13;2.90;;;24.20;59.40;;;;;;5039114;28;20080;-63
2022/10/10 13:00:49;;;;;;;4.40;3.25;;;23.90;60.10;;;;;;5033264;28;20287;-63
2022/10/10 13:03:33;;;;;;;5.20;2.42;;;23.60;60.80;;;;;;5034765;28;20096;-63
2022/10/10 13:06:05;;;;;;;7.43;3.00;;;23.40;61.60;;;;;;5034288;28;20032;-62
2022/10/10 13:08:33;;;;;;;7.55;3.40;;;23.10;62.70;;;;;;5035295;28;20029;-62
2022/10/10 13:11:14;;;;;;;7.63;2.83;;;22.90;63.60;;;;;;5042778;28;20108;-62